Time;durP1;ratioP1;P1;durP2;ratioP2;P2;SDS_P1;SDS_P2;PMS_P1;PMS_P2;Temp;Humidity;BMP_temperature;BMP_pressure;BME280_temperature;BME280_humidity;BME280_pressure;Samples;Min_cycle;Max_cycle;Signal;HPM_P1;HPM_P2
2023/02/08 00:01:49;;;;;;;40.67;23.45;;;1.30;94.30;;;;;;5025161;28;20469;-68
2023/02/08 00:04:15;;;;;;;36.75;21.77;;;1.30;94.40;;;;;;5016461;28;20567;-69
2023/02/08 00:06:41;;;;;;;39.20;23.50;;;1.20;94.40;;;;;;5010881;28;20033;-69
2023/02/08 00:09:07;;;;;;;40.28;23.70;;;1.20;94.40;;;;;;5016815;28;20025;-69
2023/02/08 00:11:33;;;;;;;37.33;22.50;;;1.20;94.40;;;;;;5011673;28;20030;-71
2023/02/08 00:13:59;;;;;;;39.28;21.92;;;1.20;94.40;;;;;;5022691;28;20043;-70
2023/02/08 00:16:25;;;;;;;39.17;22.02;;;1.20;94.50;;;;;;5044391;28;20481;-68
2023/02/08 00:18:50;;;;;;;38.30;22.52;;;1.20;94.50;;;;;;5024915;28;20444;-71
2023/02/08 00:21:17;;;;;;;37.60;23.60;;;1.20;94.50;;;;;;4995848;28;20034;-70
2023/02/08 00:23:44;;;;;;;41.00;24.42;;;1.20;94.60;;;;;;5008666;28;20116;-71
2023/02/08 00:26:10;;;;;;;41.00;23.88;;;1.20;94.60;;;;;;5022163;28;20052;-72
2023/02/08 00:28:36;;;;;;;36.20;22.75;;;1.10;94.60;;;;;;5010817;28;20025;-71
2023/02/08 00:31:02;;;;;;;42.50;24.75;;;1.20;94.70;;;;;;5011326;28;20049;-72
2023/02/08 00:33:30;;;;;;;39.00;24.48;;;1.20;94.70;;;;;;5023220;28;20137;-71
2023/02/08 00:36:01;;;;;;;44.35;23.08;;;1.10;94.70;;;;;;5012357;28;20423;-71
2023/02/08 00:38:27;;;;;;;41.55;24.27;;;1.10;94.70;;;;;;5011257;28;20033;-69
2023/02/08 00:40:53;;;;;;;40.83;23.40;;;1.10;94.70;;;;;;5004550;28;20030;-69
2023/02/08 00:43:18;;;;;;;38.05;23.85;;;1.20;94.80;;;;;;5022770;28;20075;-70
2023/02/08 00:45:44;;;;;;;38.70;22.35;;;1.20;94.80;;;;;;5035730;28;20147;-70
2023/02/08 00:48:10;;;;;;;35.40;20.77;;;1.10;94.80;;;;;;5046469;28;20373;-72
2023/02/08 00:50:36;;;;;;;34.83;20.08;;;1.10;94.80;;;;;;5016889;28;20025;-70
2023/02/08 00:53:01;;;;;;;34.58;20.70;;;1.10;94.80;;;;;;5014891;28;20026;-69
2023/02/08 00:55:27;;;;;;;37.33;21.65;;;1.10;94.80;;;;;;5023601;28;20385;-68
2023/02/08 00:57:53;;;;;;;33.95;20.92;;;1.10;94.80;;;;;;5013064;28;20306;-69
2023/02/08 01:00:18;;;;;;;35.35;20.80;;;1.00;94.80;;;;;;5024433;28;20093;-70
2023/02/08 01:02:44;;;;;;;32.28;20.52;;;1.00;94.90;;;;;;5026442;28;20065;-70
2023/02/08 01:05:10;;;;;;;34.30;20.35;;;1.00;94.90;;;;;;5013903;28;20556;-70
2023/02/08 01:07:36;;;;;;;29.20;19.15;;;0.90;94.90;;;;;;5015126;28;20030;-70
2023/02/08 01:10:04;;;;;;;32.15;20.13;;;0.90;95.00;;;;;;5022234;28;20049;-70
2023/02/08 01:12:30;;;;;;;34.25;20.65;;;0.90;94.90;;;;;;5024526;28;20079;-69
2023/02/08 01:14:55;;;;;;;35.30;21.58;;;0.90;95.00;;;;;;5012621;28;20030;-69
2023/02/08 01:17:21;;;;;;;35.60;23.25;;;0.90;95.00;;;;;;5020965;28;20034;-69
2023/02/08 01:19:47;;;;;;;35.17;22.70;;;0.80;95.00;;;;;;5019929;28;20030;-69
2023/02/08 01:22:12;;;;;;;37.90;23.63;;;0.80;95.00;;;;;;5014865;28;20057;-68
2023/02/08 01:24:38;;;;;;;37.72;22.83;;;0.80;95.00;;;;;;5036040;28;20544;-69
2023/02/08 01:27:03;;;;;;;40.22;23.40;;;0.80;95.10;;;;;;5023550;28;20204;-69
2023/02/08 01:29:29;;;;;;;41.65;24.90;;;0.80;95.10;;;;;;4999226;28;20061;-68
2023/02/08 01:31:54;;;;;;;36.45;22.63;;;0.80;95.10;;;;;;5012837;28;20056;-70
2023/02/08 01:34:20;;;;;;;35.67;22.73;;;0.70;95.10;;;;;;5030051;28;20041;-68
2023/02/08 01:36:47;;;;;;;39.55;22.63;;;0.70;95.20;;;;;;5032965;28;20092;-68
2023/02/08 01:39:12;;;;;;;37.97;22.17;;;0.70;95.20;;;;;;5031032;28;20108;-67
2023/02/08 01:41:43;;;;;;;37.42;21.45;;;0.70;95.20;;;;;;5032711;28;20120;-68
2023/02/08 01:44:12;;;;;;;36.55;21.13;;;0.70;95.30;;;;;;5026662;28;20025;-68
2023/02/08 01:46:43;;;;;;;37.70;20.35;;;0.60;95.30;;;;;;5013062;28;20111;-68
2023/02/08 01:49:11;;;;;;;32.00;20.25;;;0.60;95.30;;;;;;5027322;28;20083;-67
2023/02/08 01:51:42;;;;;;;34.90;21.27;;;0.60;95.30;;;;;;5007953;28;20460;-68
2023/02/08 01:54:09;;;;;;;34.95;20.75;;;0.50;95.30;;;;;;5033038;28;20033;-68
2023/02/08 01:56:40;;;;;;;29.08;18.98;;;0.60;95.40;;;;;;5019022;28;20034;-68
2023/02/08 01:59:09;;;;;;;35.15;20.67;;;0.60;95.40;;;;;;5007661;28;20061;-68
2023/02/08 02:01:37;;;;;;;33.38;20.63;;;0.50;95.40;;;;;;5019395;28;20434;-69
2023/02/08 02:04:04;;;;;;;30.15;20.58;;;0.50;95.40;;;;;;5029322;28;20029;-68
2023/02/08 02:06:37;;;;;;;33.97;21.48;;;0.50;95.40;;;;;;5025878;28;20121;-67
2023/02/08 02:09:30;;;;;;;36.53;19.27;;;0.50;95.40;;;;;;5019824;28;20029;-68
2023/02/08 02:11:57;;;;;;;33.50;20.08;;;0.50;95.40;;;;;;5012845;28;20557;-68
2023/02/08 02:14:25;;;;;;;31.33;20.50;;;0.50;95.40;;;;;;5013543;28;20120;-68
2023/02/08 02:16:51;;;;;;;35.45;22.10;;;0.50;95.40;;;;;;5021103;28;20061;-68
2023/02/08 02:19:48;;;;;;;31.83;21.27;;;0.50;95.50;;;;;;5024025;28;20117;-68
2023/02/08 02:22:31;;;;;;;34.33;20.63;;;0.50;95.50;;;;;;5005215;28;20446;-68
2023/02/08 02:25:34;;;;;;;32.63;20.42;;;0.50;95.50;;;;;;5022810;28;20069;-68
2023/02/08 02:28:13;;;;;;;36.10;19.77;;;0.40;95.50;;;;;;5032045;28;20022;-68
2023/02/08 02:31:10;;;;;;;33.53;21.17;;;0.40;95.50;;;;;;5028223;28;20025;-68
2023/02/08 02:33:49;;;;;;;36.45;21.98;;;0.40;95.60;;;;;;5039270;28;20106;-69
2023/02/08 02:36:31;;;;;;;37.85;22.77;;;0.40;95.60;;;;;;5012211;28;20512;-69
2023/02/08 02:39:23;;;;;;;35.72;21.33;;;0.30;95.60;;;;;;5012963;28;20067;-69
2023/02/08 02:45:02;;;;;;;37.20;22.77;;;0.30;95.60;;;;;;5018624;28;20060;-70
2023/02/08 02:47:48;;;;;;;31.35;20.77;;;0.20;95.60;;;;;;5035414;28;20033;-70
2023/02/08 02:50:19;;;;;;;31.73;20.23;;;0.30;95.70;;;;;;5019303;28;20056;-68
2023/02/08 02:52:57;;;;;;;32.15;19.95;;;0.30;95.70;;;;;;5018966;28;20144;-69
2023/02/08 02:55:25;;;;;;;28.77;18.23;;;0.20;95.70;;;;;;5022420;28;20389;-70
2023/02/08 02:57:54;;;;;;;32.08;19.35;;;0.20;95.70;;;;;;5025212;28;20112;-70
2023/02/08 03:00:26;;;;;;;29.38;18.75;;;0.20;95.70;;;;;;5023304;28;20046;-68
2023/02/08 03:02:52;;;;;;;29.50;18.70;;;0.20;95.70;;;;;;5013295;28;20037;-68
2023/02/08 03:05:18;;;;;;;29.33;18.33;;;0.10;95.70;;;;;;5022945;28;20145;-68
2023/02/08 03:07:49;;;;;;;27.13;18.33;;;0.10;95.70;;;;;;5011782;28;20018;-68
2023/02/08 03:10:49;;;;;;;31.98;18.60;;;0.20;95.70;;;;;;5014033;28;20508;-69
2023/02/08 03:13:38;;;;;;;27.40;16.98;;;0.10;95.70;;;;;;4980657;28;20346;-69
2023/02/08 03:16:15;;;;;;;30.05;18.00;;;0.10;95.70;;;;;;5018218;28;20026;-70
2023/02/08 03:19:11;;;;;;;28.50;17.75;;;0.10;95.60;;;;;;5013446;28;20044;-68
2023/02/08 03:21:41;;;;;;;30.40;17.75;;;0.00;95.60;;;;;;5004792;28;20034;-69
2023/02/08 03:24:12;;;;;;;28.23;17.70;;;0.00;95.60;;;;;;5011742;28;20033;-69
2023/02/08 03:26:59;;;;;;;28.90;17.13;;;0.00;95.60;;;;;;5012785;28;20485;-69
2023/02/08 03:30:02;;;;;;;27.75;17.00;;;-0.10;95.60;;;;;;5010918;28;20022;-69
2023/02/08 03:32:43;;;;;;;29.67;16.38;;;-0.10;95.60;;;;;;4988318;28;20052;-69
2023/02/08 03:35:15;;;;;;;28.08;16.90;;;-0.10;95.50;;;;;;5011505;28;20481;-69
2023/02/08 03:37:59;;;;;;;29.63;16.83;;;-0.20;95.50;;;;;;5013438;28;20061;-70
2023/02/08 03:40:30;;;;;;;28.33;17.10;;;-0.30;95.50;;;;;;5017764;28;20021;-69
2023/02/08 03:43:14;;;;;;;28.02;17.55;;;-0.30;95.50;;;;;;5010913;28;20042;-69
2023/02/08 03:45:50;;;;;;;28.02;15.98;;;-0.40;95.50;;;;;;5034329;28;20041;-69
2023/02/08 03:48:18;;;;;;;24.98;15.30;;;-0.40;95.60;;;;;;5037074;28;20381;-69
2023/02/08 03:50:49;;;;;;;26.73;16.92;;;-0.40;95.60;;;;;;5018173;28;20026;-69
2023/02/08 03:53:19;;;;;;;26.27;15.88;;;-0.40;95.60;;;;;;5032622;28;20051;-69
2023/02/08 03:55:47;;;;;;;25.85;15.70;;;-0.40;95.60;;;;;;5024009;28;20051;-69
2023/02/08 03:58:21;;;;;;;25.70;15.18;;;-0.40;95.80;;;;;;5021408;28;20040;-69
2023/02/08 04:01:06;;;;;;;30.10;14.45;;;-0.50;95.60;;;;;;5017754;28;20045;-70
2023/02/08 04:03:34;;;;;;;26.80;15.07;;;-0.50;95.60;;;;;;5026986;28;20073;-69
2023/02/08 04:06:00;;;;;;;25.60;15.95;;;-0.50;95.50;;;;;;5011593;28;20133;-70
2023/02/08 04:08:26;;;;;;;27.48;16.58;;;-0.50;95.50;;;;;;5020767;28;20033;-69
2023/02/08 04:10:52;;;;;;;23.58;14.90;;;-0.50;95.60;;;;;;5021324;28;20177;-69
2023/02/08 04:13:17;;;;;;;25.13;14.63;;;-0.50;95.60;;;;;;5039374;28;20118;-70
2023/02/08 04:15:43;;;;;;;25.38;15.23;;;-0.50;95.60;;;;;;5027766;28;20022;-70
2023/02/08 04:18:09;;;;;;;26.88;15.73;;;-0.60;95.60;;;;;;5028060;28;20171;-69
2023/02/08 04:20:34;;;;;;;25.35;14.98;;;-0.60;95.60;;;;;;5021318;28;20037;-69
2023/02/08 04:23:00;;;;;;;25.95;15.38;;;-0.60;95.60;;;;;;5043503;28;20044;-69
2023/02/08 04:25:26;;;;;;;28.27;16.38;;;-0.60;95.60;;;;;;5026688;28;20263;-69
2023/02/08 04:27:51;;;;;;;27.08;14.88;;;-0.60;95.70;;;;;;5033247;28;20604;-69
2023/02/08 04:30:17;;;;;;;24.17;15.57;;;-0.60;95.70;;;;;;5017964;28;20037;-70
2023/02/08 04:32:43;;;;;;;27.50;15.55;;;-0.60;95.70;;;;;;5021744;28;20037;-69
2023/02/08 04:35:08;;;;;;;25.95;15.07;;;-0.60;95.90;;;;;;5024912;28;20033;-70
2023/02/08 04:37:34;;;;;;;27.48;16.20;;;-0.60;95.70;;;;;;5047557;28;20444;-69
2023/02/08 04:40:00;;;;;;;29.10;16.48;;;-0.60;95.70;;;;;;4997828;28;20030;-70
2023/02/08 04:42:25;;;;;;;28.67;15.93;;;-0.70;95.70;;;;;;5021631;28;20296;-69
2023/02/08 04:44:51;;;;;;;26.23;14.73;;;-0.70;95.70;;;;;;5030174;28;20500;-69
2023/02/08 04:47:16;;;;;;;25.73;15.65;;;-0.70;95.70;;;;;;5035027;28;20108;-69
2023/02/08 04:49:42;;;;;;;27.48;15.48;;;-0.70;95.70;;;;;;5015866;28;20042;-69
2023/02/08 04:52:08;;;;;;;25.23;14.93;;;-0.70;95.70;;;;;;5043862;28;20489;-72
2023/02/08 04:54:33;;;;;;;24.20;14.90;;;-0.60;95.80;;;;;;5030120;28;20025;-71
2023/02/08 04:56:59;;;;;;;27.05;15.80;;;-0.60;95.80;;;;;;5028082;28;20036;-74
2023/02/08 04:59:25;;;;;;;24.20;14.57;;;-0.70;95.80;;;;;;5029196;28;20141;-77
2023/02/08 05:01:50;;;;;;;30.00;16.13;;;-0.70;95.80;;;;;;5031588;28;20033;-74
2023/02/08 05:04:16;;;;;;;26.52;15.32;;;-0.80;95.70;;;;;;5023319;28;20037;-74
2023/02/08 05:06:42;;;;;;;28.02;14.75;;;-0.80;95.80;;;;;;5024128;28;20096;-74
2023/02/08 05:09:08;;;;;;;29.30;15.20;;;-0.80;95.80;;;;;;5021765;28;20026;-74
2023/02/08 05:11:35;;;;;;;25.35;16.45;;;-0.80;95.80;;;;;;5033296;28;20026;-74
2023/02/08 05:14:01;;;;;;;24.80;15.48;;;-0.80;95.80;;;;;;5026183;28;20026;-74
2023/02/08 05:16:26;;;;;;;27.55;15.55;;;-0.80;95.90;;;;;;5024023;28;20037;-74
2023/02/08 05:18:55;;;;;;;28.42;16.48;;;-0.80;95.90;;;;;;5027423;28;20032;-74
2023/02/08 05:21:22;;;;;;;25.95;15.18;;;-0.80;95.90;;;;;;5019412;28;20106;-74
2023/02/08 05:23:48;;;;;;;27.90;15.48;;;-0.80;95.90;;;;;;5032169;28;20029;-74
2023/02/08 05:26:14;;;;;;;30.77;17.05;;;-0.80;95.90;;;;;;5049755;28;20051;-74
2023/02/08 05:28:40;;;;;;;33.05;16.58;;;-0.80;95.90;;;;;;5042465;28;20021;-74
2023/02/08 05:31:17;;;;;;;32.10;16.40;;;-0.80;95.90;;;;;;5025169;28;20325;-75
2023/02/08 05:33:42;;;;;;;25.27;15.00;;;-0.80;95.90;;;;;;5030390;28;20073;-74
2023/02/08 05:36:08;;;;;;;25.88;15.63;;;-0.80;95.90;;;;;;5011307;28;20033;-74
2023/02/08 05:38:34;;;;;;;29.00;15.88;;;-0.80;95.90;;;;;;4997664;28;20029;-74
2023/02/08 05:41:00;;;;;;;28.40;16.52;;;-0.80;95.90;;;;;;5033234;28;20029;-74
2023/02/08 05:43:25;;;;;;;27.70;15.55;;;-0.80;95.90;;;;;;5017153;28;20075;-74
2023/02/08 05:45:51;;;;;;;31.17;17.15;;;-0.80;96.20;;;;;;5017333;28;20053;-74
2023/02/08 05:48:17;;;;;;;27.33;17.05;;;-0.80;96.00;;;;;;5014214;28;20056;-74
2023/02/08 05:50:42;;;;;;;29.00;16.02;;;-0.80;95.90;;;;;;5016194;28;20385;-74
2023/02/08 05:53:08;;;;;;;25.45;16.08;;;-0.90;95.90;;;;;;5017114;28;20633;-74
2023/02/08 05:55:34;;;;;;;29.45;17.30;;;-0.90;95.90;;;;;;5026497;28;20048;-74
2023/02/08 05:57:59;;;;;;;26.58;16.73;;;-0.80;96.00;;;;;;5033990;28;20536;-74
2023/02/08 06:00:25;;;;;;;31.15;17.25;;;-0.80;96.00;;;;;;5017798;28;20046;-74
2023/02/08 06:02:51;;;;;;;30.15;17.88;;;-0.90;96.00;;;;;;5032153;28;20061;-74
2023/02/08 06:05:16;;;;;;;30.77;16.70;;;-0.90;96.00;;;;;;5025642;28;20050;-72
2023/02/08 06:07:42;;;;;;;27.95;16.95;;;-0.90;96.00;;;;;;5023894;28;20120;-72
2023/02/08 06:10:08;;;;;;;27.20;17.45;;;-0.90;96.00;;;;;;5014936;28;20030;-70
2023/02/08 06:12:33;;;;;;;30.25;16.83;;;-0.90;96.00;;;;;;5017575;28;20448;-73
2023/02/08 06:14:59;;;;;;;29.77;17.33;;;-0.90;96.00;;;;;;4998757;28;20022;-73
2023/02/08 06:17:25;;;;;;;31.95;17.27;;;-0.90;96.00;;;;;;5015840;28;20065;-67
2023/02/08 06:19:50;;;;;;;31.58;19.27;;;-0.90;96.00;;;;;;5026666;28;20025;-70
2023/02/08 06:22:16;;;;;;;31.02;17.27;;;-0.90;96.00;;;;;;5011987;28;20033;-70
2023/02/08 06:24:42;;;;;;;28.38;16.70;;;-0.90;96.00;;;;;;5018348;28;20044;-69
2023/02/08 06:27:07;;;;;;;29.52;18.10;;;-0.90;96.00;;;;;;5021265;28;20044;-68
2023/02/08 06:29:33;;;;;;;28.80;16.38;;;-0.90;96.00;;;;;;5010582;28;20535;-69
2023/02/08 06:31:58;;;;;;;33.97;18.88;;;-0.90;96.00;;;;;;5024895;28;20057;-68
2023/02/08 06:34:24;;;;;;;30.90;19.27;;;-0.90;96.00;;;;;;5018931;28;20070;-68
2023/02/08 06:36:49;;;;;;;30.73;17.55;;;-0.90;96.00;;;;;;5026389;28;20037;-69
2023/02/08 06:39:15;;;;;;;31.75;18.02;;;-0.90;96.00;;;;;;5023833;28;20030;-70
2023/02/08 06:41:41;;;;;;;31.75;17.92;;;-0.90;96.00;;;;;;5012242;28;20025;-69
2023/02/08 06:44:06;;;;;;;32.60;17.92;;;-0.90;96.00;;;;;;5033319;28;20393;-68
2023/02/08 06:46:32;;;;;;;33.33;17.20;;;-0.90;96.00;;;;;;5011958;28;20042;-68
2023/02/08 06:48:59;;;;;;;32.65;18.40;;;-0.90;96.00;;;;;;5027510;28;20096;-68
2023/02/08 06:51:25;;;;;;;29.98;16.42;;;-0.90;96.00;;;;;;5016148;28;20044;-68
2023/02/08 06:53:51;;;;;;;32.85;18.05;;;-0.90;96.00;;;;;;5031140;28;20034;-69
2023/02/08 06:56:16;;;;;;;33.65;18.60;;;-0.90;96.00;;;;;;5011288;28;20133;-68
2023/02/08 06:58:42;;;;;;;33.80;17.90;;;-0.90;96.00;;;;;;5029979;28;20041;-67
2023/02/08 07:01:12;;;;;;;34.88;19.20;;;-0.90;96.00;;;;;;5018820;28;20039;-68
2023/02/08 07:03:38;;;;;;;28.50;17.13;;;-0.90;96.10;;;;;;5022709;28;20090;-67
2023/02/08 07:06:03;;;;;;;29.52;16.67;;;-0.90;96.10;;;;;;5014282;28;20054;-68
2023/02/08 07:08:29;;;;;;;29.13;16.80;;;-0.90;96.10;;;;;;5025677;28;20128;-68
2023/02/08 07:10:55;;;;;;;31.70;17.13;;;-0.80;96.10;;;;;;5021746;28;20042;-68
2023/02/08 07:13:21;;;;;;;30.70;17.65;;;-0.80;96.10;;;;;;5018620;28;20519;-68
2023/02/08 07:15:46;;;;;;;31.52;16.50;;;-0.70;96.10;;;;;;5017819;28;20030;-68
2023/02/08 07:18:12;;;;;;;32.22;17.63;;;-0.80;96.10;;;;;;5001977;28;20029;-68
2023/02/08 07:20:37;;;;;;;37.83;19.00;;;-0.70;96.10;;;;;;5022841;28;20071;-68
2023/02/08 07:23:03;;;;;;;36.42;18.77;;;-0.70;96.20;;;;;;5016235;28;20037;-68
2023/02/08 07:25:29;;;;;;;33.03;18.35;;;-0.70;96.10;;;;;;5021329;28;20041;-67
2023/02/08 07:27:54;;;;;;;34.58;19.05;;;-0.60;96.20;;;;;;5019882;28;20543;-67
2023/02/08 07:30:20;;;;;;;32.65;18.50;;;-0.60;96.10;;;;;;5015319;28;20091;-67
2023/02/08 07:32:45;;;;;;;32.17;16.88;;;-0.60;96.10;;;;;;5022298;28;20021;-67
2023/02/08 07:35:11;;;;;;;32.42;19.15;;;-0.60;96.20;;;;;;5021169;28;20112;-67
2023/02/08 07:37:37;;;;;;;34.35;17.65;;;-0.50;96.20;;;;;;5023930;28;20029;-65
2023/02/08 07:40:03;;;;;;;32.63;19.83;;;-0.50;96.20;;;;;;5014265;28;20026;-65
2023/02/08 07:42:28;;;;;;;32.03;18.13;;;-0.40;96.20;;;;;;5010993;28;20033;-68
2023/02/08 07:44:54;;;;;;;31.63;18.50;;;-0.40;96.10;;;;;;5016464;28;20052;-66
2023/02/08 07:47:20;;;;;;;35.55;18.40;;;-0.40;96.10;;;;;;5021425;28;20026;-66
2023/02/08 07:49:45;;;;;;;32.25;17.27;;;-0.40;96.10;;;;;;5024800;28;20029;-68
2023/02/08 07:52:11;;;;;;;38.50;16.77;;;-0.30;96.10;;;;;;5027937;28;20036;-66
2023/02/08 07:54:36;;;;;;;32.90;17.95;;;-0.30;96.10;;;;;;5023231;28;20495;-68
2023/02/08 07:57:02;;;;;;;30.65;17.85;;;-0.20;96.30;;;;;;5020744;28;20026;-68
2023/02/08 07:59:28;;;;;;;33.00;18.05;;;-0.20;96.30;;;;;;5017578;28;20464;-66
2023/02/08 08:01:53;;;;;;;31.85;17.95;;;-0.10;96.30;;;;;;5027794;28;20032;-67
2023/02/08 08:04:20;;;;;;;32.55;18.10;;;-0.10;96.30;;;;;;5031961;28;20033;-67
2023/02/08 08:06:46;;;;;;;35.28;18.85;;;-0.10;96.20;;;;;;5018914;28;20037;-67
2023/02/08 08:09:14;;;;;;;31.48;19.42;;;-0.10;96.10;;;;;;5029376;28;20384;-68
2023/02/08 08:11:39;;;;;;;31.02;18.48;;;-0.10;96.10;;;;;;5024518;28;20042;-67
2023/02/08 08:14:05;;;;;;;30.98;18.55;;;0.00;96.10;;;;;;5031633;28;20041;-66
2023/02/08 08:16:30;;;;;;;36.53;18.73;;;0.00;96.00;;;;;;5032955;28;20053;-64
2023/02/08 08:18:56;;;;;;;33.92;19.08;;;0.00;96.00;;;;;;5022587;28;20516;-65
2023/02/08 08:21:22;;;;;;;34.17;18.98;;;0.10;96.10;;;;;;5031798;28;20036;-64
2023/02/08 08:23:47;;;;;;;33.95;19.00;;;0.10;96.30;;;;;;5023623;28;21158;-62
2023/02/08 08:26:19;;;;;;;33.42;18.60;;;0.20;96.10;;;;;;5027459;28;20431;-65
2023/02/08 08:28:47;;;;;;;31.95;18.92;;;0.20;96.00;;;;;;5019432;28;20026;-66
2023/02/08 08:31:16;;;;;;;33.47;18.38;;;0.20;96.00;;;;;;5022542;28;20075;-64
2023/02/08 08:33:41;;;;;;;34.35;19.70;;;0.30;96.00;;;;;;5017811;28;20026;-64
2023/02/08 08:36:08;;;;;;;33.20;18.55;;;0.30;95.90;;;;;;5033856;28;20048;-65
2023/02/08 08:38:34;;;;;;;35.83;18.20;;;0.30;95.90;;;;;;5018712;28;20030;-65
2023/02/08 08:40:59;;;;;;;30.30;18.75;;;0.40;96.00;;;;;;5026202;28;20101;-63
2023/02/08 08:43:25;;;;;;;32.95;18.27;;;0.40;95.90;;;;;;5024986;28;20037;-64
2023/02/08 08:45:51;;;;;;;33.13;19.85;;;0.50;95.90;;;;;;5024550;28;20052;-66
2023/02/08 08:48:16;;;;;;;28.33;16.90;;;0.50;95.80;;;;;;5025625;28;20029;-65
2023/02/08 08:50:42;;;;;;;27.08;16.33;;;0.50;95.80;;;;;;5021050;28;20370;-65
2023/02/08 08:53:08;;;;;;;32.40;18.25;;;0.60;95.80;;;;;;5014732;28;20030;-64
2023/02/08 08:55:34;;;;;;;34.95;17.90;;;0.60;95.80;;;;;;5017537;28;20022;-65
2023/02/08 08:57:59;;;;;;;32.20;19.10;;;0.60;95.80;;;;;;5025231;28;20466;-65
2023/02/08 09:00:26;;;;;;;31.88;18.38;;;0.70;96.00;;;;;;5024037;28;20481;-64
2023/02/08 09:02:51;;;;;;;31.15;18.55;;;0.70;95.80;;;;;;5024133;28;20108;-64
2023/02/08 09:05:17;;;;;;;30.00;17.63;;;0.70;95.70;;;;;;5018902;28;20124;-64
2023/02/08 09:07:43;;;;;;;33.78;19.95;;;0.80;95.80;;;;;;5033956;28;20021;-64
2023/02/08 09:10:08;;;;;;;31.17;18.80;;;0.80;95.80;;;;;;5020857;28;20029;-64
2023/02/08 09:12:34;;;;;;;39.28;22.20;;;0.90;95.80;;;;;;5028147;28;20535;-64
2023/02/08 09:14:59;;;;;;;34.47;20.60;;;0.90;95.70;;;;;;5025404;28;20037;-65
2023/02/08 09:17:25;;;;;;;40.67;22.10;;;0.90;95.70;;;;;;5007971;28;20232;-66
2023/02/08 09:19:51;;;;;;;34.63;20.88;;;1.00;95.70;;;;;;5014551;28;20044;-65
2023/02/08 09:22:17;;;;;;;36.88;20.70;;;1.10;95.70;;;;;;5018160;28;20150;-65
2023/02/08 09:24:43;;;;;;;33.72;20.17;;;1.10;95.90;;;;;;5024231;28;20184;-65
2023/02/08 09:27:08;;;;;;;37.15;20.60;;;1.20;95.70;;;;;;5029300;28;20525;-65
2023/02/08 09:29:34;;;;;;;40.55;21.52;;;1.20;95.60;;;;;;5023726;28;20076;-65
2023/02/08 09:32:00;;;;;;;35.25;20.83;;;1.30;95.60;;;;;;5022630;28;20486;-65
2023/02/08 09:34:26;;;;;;;33.40;20.05;;;1.30;95.50;;;;;;5015579;28;20392;-65
2023/02/08 09:36:52;;;;;;;35.78;20.25;;;1.30;95.50;;;;;;5014134;28;20033;-65
2023/02/08 09:39:21;;;;;;;38.92;22.20;;;1.40;95.50;;;;;;5021233;28;20038;-66
2023/02/08 09:41:58;;;;;;;35.65;21.38;;;1.40;95.50;;;;;;5021703;28;20051;-66
2023/02/08 09:44:30;;;;;;;34.42;20.92;;;1.40;95.40;;;;;;5016170;28;20026;-65
2023/02/08 09:47:05;;;;;;;34.90;21.50;;;1.50;95.50;;;;;;5018705;28;20057;-64
2023/02/08 09:49:35;;;;;;;36.38;22.30;;;1.50;95.40;;;;;;5017381;28;20125;-64
2023/02/08 09:52:05;;;;;;;35.22;20.88;;;1.50;95.30;;;;;;5011055;28;20183;-63
2023/02/08 09:54:40;;;;;;;35.53;20.02;;;1.60;95.30;;;;;;5015264;28;20381;-64
2023/02/08 09:57:13;;;;;;;38.08;23.08;;;1.60;95.20;;;;;;5020758;28;20229;-64
2023/02/08 09:59:45;;;;;;;38.63;22.70;;;1.60;95.20;;;;;;5023324;28;20481;-64
2023/02/08 10:02:26;;;;;;;35.72;21.13;;;1.70;95.20;;;;;;5029626;28;20493;-64
2023/02/08 10:04:54;;;;;;;39.55;20.92;;;1.70;95.20;;;;;;5027638;28;20041;-63
2023/02/08 10:07:20;;;;;;;36.08;21.25;;;1.80;95.20;;;;;;5012763;28;20022;-64
2023/02/08 10:09:46;;;;;;;36.22;22.08;;;1.80;95.20;;;;;;5023975;28;20084;-63
2023/02/08 10:12:21;;;;;;;37.15;22.17;;;1.90;95.20;;;;;;5017159;28;20108;-64
2023/02/08 10:15:13;;;;;;;37.00;22.63;;;1.90;95.10;;;;;;5005352;28;20025;-64
2023/02/08 10:17:59;;;;;;;36.20;21.27;;;1.90;95.00;;;;;;5007979;28;20385;-66
2023/02/08 10:20:46;;;;;;;37.40;21.88;;;2.00;95.00;;;;;;5022137;28;20495;-64
2023/02/08 10:23:31;;;;;;;41.45;22.60;;;2.00;94.80;;;;;;5027837;28;20034;-64
2023/02/08 10:26:36;;;;;;;38.03;20.38;;;2.00;94.80;;;;;;5012243;28;20042;-64
2023/02/08 10:29:16;;;;;;;38.80;23.20;;;2.00;94.70;;;;;;5004181;28;20134;-64
2023/02/08 10:32:07;;;;;;;36.25;23.33;;;2.00;94.70;;;;;;5025280;28;20022;-66
2023/02/08 10:34:41;;;;;;;37.88;22.10;;;2.00;94.70;;;;;;5027056;28;20112;-64
2023/02/08 10:37:15;;;;;;;42.47;24.38;;;2.10;94.60;;;;;;5013974;28;20021;-64
2023/02/08 10:39:41;;;;;;;37.28;22.02;;;2.10;94.60;;;;;;5027490;28;20057;-64
2023/02/08 10:42:13;;;;;;;39.15;23.00;;;2.10;94.50;;;;;;5014276;28;20041;-64
2023/02/08 10:45:07;;;;;;;36.92;21.48;;;2.20;94.50;;;;;;5022015;28;20026;-64
2023/02/08 10:47:43;;;;;;;35.65;20.95;;;2.20;94.50;;;;;;5025683;28;20287;-64
2023/02/08 10:50:18;;;;;;;36.72;21.23;;;2.20;94.40;;;;;;5016145;28;20054;-64
2023/02/08 10:52:44;;;;;;;33.90;21.50;;;2.30;94.40;;;;;;5004771;28;20101;-64
2023/02/08 10:55:16;;;;;;;38.83;22.45;;;2.30;94.40;;;;;;5020232;28;20180;-64
2023/02/08 10:57:43;;;;;;;36.40;20.92;;;2.40;94.40;;;;;;5023846;28;20029;-64
2023/02/08 11:00:31;;;;;;;42.90;22.13;;;2.40;94.30;;;;;;5010994;28;20054;-64
2023/02/08 11:03:02;;;;;;;35.15;21.45;;;2.40;94.20;;;;;;5022543;28;20305;-64
2023/02/08 11:05:32;;;;;;;36.85;20.42;;;2.50;94.20;;;;;;5021508;28;20068;-64
2023/02/08 11:08:10;;;;;;;39.95;22.27;;;2.50;94.20;;;;;;5017868;28;20029;-64
2023/02/08 11:10:38;;;;;;;42.45;23.67;;;2.50;94.10;;;;;;5022397;28;20021;-64
2023/02/08 11:13:15;;;;;;;36.70;19.88;;;2.60;94.10;;;;;;5024669;28;20140;-64
2023/02/08 11:15:56;;;;;;;36.05;20.60;;;2.60;94.10;;;;;;5013816;28;20496;-64
2023/02/08 11:18:34;;;;;;;35.88;21.75;;;2.70;94.10;;;;;;5011061;28;20030;-64
2023/02/08 11:21:05;;;;;;;38.08;22.30;;;2.70;94.20;;;;;;5016803;28;20025;-65
2023/02/08 11:23:38;;;;;;;32.50;19.88;;;2.70;93.90;;;;;;5018982;28;20436;-64
2023/02/08 11:26:32;;;;;;;38.97;23.17;;;2.80;94.10;;;;;;5009934;28;20080;-64
2023/02/08 11:29:02;;;;;;;40.22;23.05;;;2.80;93.80;;;;;;5013654;28;20080;-64
2023/02/08 11:31:29;;;;;;;41.33;20.77;;;2.80;93.80;;;;;;5016471;28;20026;-64
2023/02/08 11:33:57;;;;;;;38.20;21.10;;;2.90;93.80;;;;;;5025454;28;20370;-64
2023/02/08 11:36:23;;;;;;;109.65;29.27;;;2.90;93.70;;;;;;5011257;28;20026;-64
2023/02/08 11:38:49;;;;;;;38.10;21.67;;;3.00;93.70;;;;;;5011934;28;20038;-64
2023/02/08 11:41:18;;;;;;;37.90;20.58;;;3.00;93.70;;;;;;5023035;28;20063;-64
2023/02/08 11:43:56;;;;;;;35.60;21.27;;;3.10;93.70;;;;;;5018148;28;20022;-64
2023/02/08 11:46:25;;;;;;;37.38;23.05;;;3.10;93.60;;;;;;5012767;28;20049;-64
2023/02/08 11:48:51;;;;;;;38.22;22.48;;;3.20;93.50;;;;;;5008606;28;20029;-64
2023/02/08 11:51:31;;;;;;;33.05;19.60;;;3.20;93.30;;;;;;5013907;28;20034;-64
2023/02/08 11:53:59;;;;;;;33.03;21.08;;;3.20;93.30;;;;;;5023654;28;20029;-65
2023/02/08 11:56:30;;;;;;;32.83;20.48;;;3.30;93.30;;;;;;5013242;28;20033;-64
2023/02/08 11:58:56;;;;;;;32.58;19.45;;;3.30;93.30;;;;;;5021648;28;20429;-65
2023/02/08 12:01:28;;;;;;;35.08;21.15;;;3.30;93.20;;;;;;5020570;28;20033;-65
2023/02/08 12:03:55;;;;;;;32.10;20.58;;;3.40;93.20;;;;;;5024440;28;20029;-64
2023/02/08 12:06:45;;;;;;;35.08;20.38;;;3.40;93.00;;;;;;5023416;28;20046;-65
2023/02/08 12:09:41;;;;;;;34.28;21.08;;;3.40;93.00;;;;;;5022502;28;20034;-64
2023/02/08 12:12:16;;;;;;;;;;;3.40;92.90;;;;;;5018658;28;20029;-64
2023/02/08 12:15:06;;;;;;;25.73;15.07;;;3.40;93.10;;;;;;5016757;28;20316;-64
2023/02/08 12:17:34;;;;;;;32.05;20.55;;;3.40;93.00;;;;;;5010405;28;20030;-66
2023/02/08 12:20:22;;;;;;;35.10;21.30;;;3.40;92.90;;;;;;5010650;28;20026;-65
2023/02/08 12:23:15;;;;;;;38.55;21.55;;;3.50;92.90;;;;;;5020832;28;20029;-64
2023/02/08 12:26:05;;;;;;;34.47;20.60;;;3.50;92.90;;;;;;5020986;28;20444;-65
2023/02/08 12:29:02;;;;;;;33.53;20.05;;;3.50;92.80;;;;;;5022367;28;20476;-65
2023/02/08 12:31:51;;;;;;;29.83;20.08;;;3.60;92.80;;;;;;5012034;28;20075;-64
2023/02/08 12:34:35;;;;;;;33.72;21.05;;;3.60;92.80;;;;;;5013827;28;20057;-65
2023/02/08 12:43:12;;;;;;;33.33;19.98;;;3.70;92.60;;;;;;5015622;28;20077;-65
2023/02/08 12:46:12;;;;;;;33.38;19.30;;;3.70;92.60;;;;;;5011010;28;20069;-66
2023/02/08 12:49:03;;;;;;;32.47;20.13;;;3.70;92.50;;;;;;5029255;28;20509;-64
2023/02/08 12:51:35;;;;;;;30.58;19.67;;;3.70;92.50;;;;;;5020224;28;20053;-64
2023/02/08 12:54:15;;;;;;;31.92;20.42;;;3.80;92.60;;;;;;5024284;28;20029;-64
2023/02/08 12:56:46;;;;;;;32.40;20.27;;;3.80;92.50;;;;;;5025938;28;20040;-64
2023/02/08 12:59:33;;;;;;;37.97;20.55;;;3.80;92.50;;;;;;5024103;28;20564;-64